sensor_id;sensor_type;location;lat;lon;timestamp;P1;durP1;ratioP1;P2;durP2;ratioP2
19519;SDS011;9904;52.246;20.898;2023-03-01T00:01:25;150.73;;;49.60;;
19519;SDS011;9904;52.246;20.898;2023-03-01T00:03:53;147.77;;;49.40;;
19519;SDS011;9904;52.246;20.898;2023-03-01T00:06:21;141.57;;;48.17;;
19519;SDS011;9904;52.246;20.898;2023-03-01T00:08:48;134.10;;;47.43;;
19519;SDS011;9904;52.246;20.898;2023-03-01T00:11:19;136.70;;;46.73;;
19519;SDS011;9904;52.246;20.898;2023-03-01T00:13:50;137.50;;;47.33;;
19519;SDS011;9904;52.246;20.898;2023-03-01T00:16:21;150.77;;;47.80;;
19519;SDS011;9904;52.246;20.898;2023-03-01T00:18:49;131.63;;;46.53;;
19519;SDS011;9904;52.246;20.898;2023-03-01T00:21:17;137.73;;;48.13;;
19519;SDS011;9904;52.246;20.898;2023-03-01T00:23:43;148.30;;;48.80;;
19519;SDS011;9904;52.246;20.898;2023-03-01T00:26:10;128.30;;;45.93;;
19519;SDS011;9904;52.246;20.898;2023-03-01T00:28:39;138.63;;;48.93;;
19519;SDS011;9904;52.246;20.898;2023-03-01T00:31:06;144.90;;;47.93;;
19519;SDS011;9904;52.246;20.898;2023-03-01T00:33:34;139.07;;;48.37;;
19519;SDS011;9904;52.246;20.898;2023-03-01T00:36:01;136.07;;;48.37;;
19519;SDS011;9904;52.246;20.898;2023-03-01T00:38:29;138.03;;;48.40;;
19519;SDS011;9904;52.246;20.898;2023-03-01T00:41:02;137.70;;;49.67;;
19519;SDS011;9904;52.246;20.898;2023-03-01T00:43:30;125.30;;;46.90;;
19519;SDS011;9904;52.246;20.898;2023-03-01T00:46:00;142.67;;;49.67;;
19519;SDS011;9904;52.246;20.898;2023-03-01T00:48:27;147.67;;;50.03;;
19519;SDS011;9904;52.246;20.898;2023-03-01T00:50:54;131.90;;;46.37;;
19519;SDS011;9904;52.246;20.898;2023-03-01T00:53:20;133.63;;;47.43;;
19519;SDS011;9904;52.246;20.898;2023-03-01T00:55:47;137.63;;;49.97;;
19519;SDS011;9904;52.246;20.898;2023-03-01T00:58:14;143.43;;;48.10;;
19519;SDS011;9904;52.246;20.898;2023-03-01T01:00:40;133.27;;;46.50;;
19519;SDS011;9904;52.246;20.898;2023-03-01T01:03:07;129.20;;;47.50;;
19519;SDS011;9904;52.246;20.898;2023-03-01T01:05:34;135.33;;;46.50;;
19519;SDS011;9904;52.246;20.898;2023-03-01T01:08:01;137.30;;;46.70;;
19519;SDS011;9904;52.246;20.898;2023-03-01T01:10:27;127.67;;;45.73;;
19519;SDS011;9904;52.246;20.898;2023-03-01T01:12:54;125.27;;;46.00;;
19519;SDS011;9904;52.246;20.898;2023-03-01T01:15:21;122.93;;;46.70;;
19519;SDS011;9904;52.246;20.898;2023-03-01T01:17:47;126.93;;;45.77;;
19519;SDS011;9904;52.246;20.898;2023-03-01T01:20:14;127.80;;;45.30;;
19519;SDS011;9904;52.246;20.898;2023-03-01T01:22:40;128.33;;;47.77;;
19519;SDS011;9904;52.246;20.898;2023-03-01T01:25:07;132.03;;;45.43;;
19519;SDS011;9904;52.246;20.898;2023-03-01T01:27:34;129.53;;;45.63;;
19519;SDS011;9904;52.246;20.898;2023-03-01T01:30:01;123.97;;;45.30;;
19519;SDS011;9904;52.246;20.898;2023-03-01T01:32:27;125.00;;;46.30;;
19519;SDS011;9904;52.246;20.898;2023-03-01T01:34:54;131.90;;;47.00;;
19519;SDS011;9904;52.246;20.898;2023-03-01T01:37:21;121.83;;;43.17;;
19519;SDS011;9904;52.246;20.898;2023-03-01T01:39:48;127.17;;;44.80;;
19519;SDS011;9904;52.246;20.898;2023-03-01T01:42:17;128.07;;;45.40;;
19519;SDS011;9904;52.246;20.898;2023-03-01T01:44:47;122.30;;;44.73;;
19519;SDS011;9904;52.246;20.898;2023-03-01T01:47:14;124.80;;;45.60;;
19519;SDS011;9904;52.246;20.898;2023-03-01T01:52:18;119.20;;;43.97;;
19519;SDS011;9904;52.246;20.898;2023-03-01T01:54:56;120.63;;;42.77;;
19519;SDS011;9904;52.246;20.898;2023-03-01T01:57:47;124.80;;;44.23;;
19519;SDS011;9904;52.246;20.898;2023-03-01T02:00:14;124.50;;;44.10;;
19519;SDS011;9904;52.246;20.898;2023-03-01T02:02:43;131.37;;;44.90;;
19519;SDS011;9904;52.246;20.898;2023-03-01T02:05:16;130.83;;;45.47;;
19519;SDS011;9904;52.246;20.898;2023-03-01T02:08:02;120.33;;;44.50;;
19519;SDS011;9904;52.246;20.898;2023-03-01T02:10:29;127.73;;;44.10;;
19519;SDS011;9904;52.246;20.898;2023-03-01T02:12:59;133.77;;;44.10;;
19519;SDS011;9904;52.246;20.898;2023-03-01T02:15:26;128.53;;;43.87;;
19519;SDS011;9904;52.246;20.898;2023-03-01T02:17:53;127.53;;;43.77;;
19519;SDS011;9904;52.246;20.898;2023-03-01T02:20:34;116.03;;;43.93;;
19519;SDS011;9904;52.246;20.898;2023-03-01T02:23:06;125.80;;;44.30;;
19519;SDS011;9904;52.246;20.898;2023-03-01T02:31:04;132.33;;;44.63;;
19519;SDS011;9904;52.246;20.898;2023-03-01T02:33:50;122.77;;;44.13;;
19519;SDS011;9904;52.246;20.898;2023-03-01T02:36:19;122.83;;;44.40;;
19519;SDS011;9904;52.246;20.898;2023-03-01T02:38:49;126.67;;;44.30;;
19519;SDS011;9904;52.246;20.898;2023-03-01T02:41:18;124.17;;;44.20;;
19519;SDS011;9904;52.246;20.898;2023-03-01T02:43:45;118.23;;;43.40;;
19519;SDS011;9904;52.246;20.898;2023-03-01T02:46:22;125.27;;;44.53;;
19519;SDS011;9904;52.246;20.898;2023-03-01T02:48:51;126.07;;;43.60;;
19519;SDS011;9904;52.246;20.898;2023-03-01T02:56:43;120.80;;;45.17;;
19519;SDS011;9904;52.246;20.898;2023-03-01T02:59:10;127.43;;;45.60;;
19519;SDS011;9904;52.246;20.898;2023-03-01T03:01:37;116.87;;;44.93;;
19519;SDS011;9904;52.246;20.898;2023-03-01T03:04:07;118.37;;;41.97;;
19519;SDS011;9904;52.246;20.898;2023-03-01T03:06:36;118.53;;;43.63;;
19519;SDS011;9904;52.246;20.898;2023-03-01T03:09:03;121.43;;;44.83;;
19519;SDS011;9904;52.246;20.898;2023-03-01T03:11:30;123.57;;;44.73;;
19519;SDS011;9904;52.246;20.898;2023-03-01T03:13:58;123.17;;;44.13;;
19519;SDS011;9904;52.246;20.898;2023-03-01T03:16:25;121.27;;;43.00;;
19519;SDS011;9904;52.246;20.898;2023-03-01T03:18:52;130.80;;;43.00;;
19519;SDS011;9904;52.246;20.898;2023-03-01T03:21:18;126.07;;;43.37;;
19519;SDS011;9904;52.246;20.898;2023-03-01T03:23:45;130.30;;;44.90;;
19519;SDS011;9904;52.246;20.898;2023-03-01T03:26:11;132.57;;;44.67;;
19519;SDS011;9904;52.246;20.898;2023-03-01T03:28:39;125.67;;;44.27;;
19519;SDS011;9904;52.246;20.898;2023-03-01T03:31:06;126.53;;;44.10;;
19519;SDS011;9904;52.246;20.898;2023-03-01T03:33:33;127.57;;;43.73;;
19519;SDS011;9904;52.246;20.898;2023-03-01T03:36:00;127.13;;;43.67;;
19519;SDS011;9904;52.246;20.898;2023-03-01T03:38:26;136.93;;;45.50;;
19519;SDS011;9904;52.246;20.898;2023-03-01T03:41:03;118.37;;;42.80;;
19519;SDS011;9904;52.246;20.898;2023-03-01T03:43:33;125.47;;;45.00;;
19519;SDS011;9904;52.246;20.898;2023-03-01T03:46:01;120.57;;;44.53;;
19519;SDS011;9904;52.246;20.898;2023-03-01T03:48:35;126.73;;;45.03;;
19519;SDS011;9904;52.246;20.898;2023-03-01T03:51:03;120.07;;;43.43;;
19519;SDS011;9904;52.246;20.898;2023-03-01T03:53:31;120.30;;;42.60;;
19519;SDS011;9904;52.246;20.898;2023-03-01T03:55:59;129.40;;;45.07;;
19519;SDS011;9904;52.246;20.898;2023-03-01T03:58:25;127.83;;;44.00;;
19519;SDS011;9904;52.246;20.898;2023-03-01T04:00:53;127.87;;;44.07;;
19519;SDS011;9904;52.246;20.898;2023-03-01T04:03:22;113.03;;;41.47;;
19519;SDS011;9904;52.246;20.898;2023-03-01T04:05:50;117.90;;;43.73;;
19519;SDS011;9904;52.246;20.898;2023-03-01T04:08:18;121.47;;;43.17;;
19519;SDS011;9904;52.246;20.898;2023-03-01T04:10:47;123.57;;;42.73;;
19519;SDS011;9904;52.246;20.898;2023-03-01T04:13:16;116.07;;;43.47;;
19519;SDS011;9904;52.246;20.898;2023-03-01T04:15:46;116.07;;;42.07;;
19519;SDS011;9904;52.246;20.898;2023-03-01T04:18:15;114.80;;;42.03;;
19519;SDS011;9904;52.246;20.898;2023-03-01T04:20:43;118.80;;;40.93;;
19519;SDS011;9904;52.246;20.898;2023-03-01T04:23:14;120.53;;;43.33;;
19519;SDS011;9904;52.246;20.898;2023-03-01T04:25:46;121.67;;;43.17;;
19519;SDS011;9904;52.246;20.898;2023-03-01T04:28:26;122.00;;;45.17;;
19519;SDS011;9904;52.246;20.898;2023-03-01T04:30:56;126.10;;;44.03;;
19519;SDS011;9904;52.246;20.898;2023-03-01T04:33:24;116.57;;;41.20;;
19519;SDS011;9904;52.246;20.898;2023-03-01T04:35:51;125.83;;;44.50;;
19519;SDS011;9904;52.246;20.898;2023-03-01T04:38:18;123.47;;;42.73;;
19519;SDS011;9904;52.246;20.898;2023-03-01T04:40:45;122.37;;;44.53;;
19519;SDS011;9904;52.246;20.898;2023-03-01T04:43:12;114.43;;;41.97;;
19519;SDS011;9904;52.246;20.898;2023-03-01T04:45:41;122.87;;;44.40;;
19519;SDS011;9904;52.246;20.898;2023-03-01T04:48:08;119.97;;;43.13;;
19519;SDS011;9904;52.246;20.898;2023-03-01T04:50:35;131.57;;;44.70;;
19519;SDS011;9904;52.246;20.898;2023-03-01T04:53:02;119.30;;;44.17;;
19519;SDS011;9904;52.246;20.898;2023-03-01T04:55:29;126.20;;;43.43;;
19519;SDS011;9904;52.246;20.898;2023-03-01T04:57:55;126.50;;;43.90;;
19519;SDS011;9904;52.246;20.898;2023-03-01T05:00:22;118.67;;;42.97;;
19519;SDS011;9904;52.246;20.898;2023-03-01T05:02:50;132.83;;;44.20;;
19519;SDS011;9904;52.246;20.898;2023-03-01T05:05:25;123.53;;;43.70;;
19519;SDS011;9904;52.246;20.898;2023-03-01T05:07:55;120.37;;;42.47;;
19519;SDS011;9904;52.246;20.898;2023-03-01T05:10:23;123.00;;;43.00;;
19519;SDS011;9904;52.246;20.898;2023-03-01T05:12:50;132.40;;;44.07;;
19519;SDS011;9904;52.246;20.898;2023-03-01T05:15:18;126.17;;;43.33;;
19519;SDS011;9904;52.246;20.898;2023-03-01T05:17:45;119.07;;;43.00;;
19519;SDS011;9904;52.246;20.898;2023-03-01T05:20:12;123.50;;;42.03;;
19519;SDS011;9904;52.246;20.898;2023-03-01T05:22:39;119.97;;;42.50;;
19519;SDS011;9904;52.246;20.898;2023-03-01T05:25:05;132.70;;;43.80;;
19519;SDS011;9904;52.246;20.898;2023-03-01T05:27:33;115.60;;;42.20;;
19519;SDS011;9904;52.246;20.898;2023-03-01T05:30:00;117.70;;;41.10;;
19519;SDS011;9904;52.246;20.898;2023-03-01T05:32:42;106.10;;;41.23;;
19519;SDS011;9904;52.246;20.898;2023-03-01T05:35:13;116.83;;;41.17;;
19519;SDS011;9904;52.246;20.898;2023-03-01T05:37:45;115.03;;;41.77;;
19519;SDS011;9904;52.246;20.898;2023-03-01T05:40:17;113.33;;;40.93;;
19519;SDS011;9904;52.246;20.898;2023-03-01T05:42:46;112.23;;;41.27;;
19519;SDS011;9904;52.246;20.898;2023-03-01T05:45:15;109.30;;;39.97;;
19519;SDS011;9904;52.246;20.898;2023-03-01T05:47:43;106.97;;;39.87;;
19519;SDS011;9904;52.246;20.898;2023-03-01T05:50:11;116.87;;;39.70;;
19519;SDS011;9904;52.246;20.898;2023-03-01T05:52:39;107.90;;;40.63;;
19519;SDS011;9904;52.246;20.898;2023-03-01T05:55:06;110.33;;;39.63;;
19519;SDS011;9904;52.246;20.898;2023-03-01T05:57:33;111.20;;;38.90;;
19519;SDS011;9904;52.246;20.898;2023-03-01T06:00:00;111.97;;;39.97;;
19519;SDS011;9904;52.246;20.898;2023-03-01T06:02:27;119.87;;;40.03;;
19519;SDS011;9904;52.246;20.898;2023-03-01T06:04:53;105.60;;;37.53;;
19519;SDS011;9904;52.246;20.898;2023-03-01T06:07:21;107.90;;;38.43;;
19519;SDS011;9904;52.246;20.898;2023-03-01T06:09:47;111.67;;;40.93;;
19519;SDS011;9904;52.246;20.898;2023-03-01T06:12:14;110.23;;;39.03;;
19519;SDS011;9904;52.246;20.898;2023-03-01T06:14:40;116.90;;;39.17;;
19519;SDS011;9904;52.246;20.898;2023-03-01T06:17:07;114.53;;;39.77;;
19519;SDS011;9904;52.246;20.898;2023-03-01T06:19:33;120.20;;;42.10;;
19519;SDS011;9904;52.246;20.898;2023-03-01T06:22:00;110.07;;;39.77;;
19519;SDS011;9904;52.246;20.898;2023-03-01T06:24:26;122.77;;;42.30;;
19519;SDS011;9904;52.246;20.898;2023-03-01T06:26:54;114.23;;;38.97;;
19519;SDS011;9904;52.246;20.898;2023-03-01T06:29:22;120.67;;;43.83;;
19519;SDS011;9904;52.246;20.898;2023-03-01T06:31:49;124.10;;;40.47;;
19519;SDS011;9904;52.246;20.898;2023-03-01T06:34:15;109.97;;;38.90;;
19519;SDS011;9904;52.246;20.898;2023-03-01T06:36:42;117.27;;;38.83;;
19519;SDS011;9904;52.246;20.898;2023-03-01T06:39:09;110.27;;;38.07;;
19519;SDS011;9904;52.246;20.898;2023-03-01T06:41:35;102.33;;;36.40;;
19519;SDS011;9904;52.246;20.898;2023-03-01T06:44:02;104.07;;;38.40;;
19519;SDS011;9904;52.246;20.898;2023-03-01T06:46:28;102.80;;;36.03;;
19519;SDS011;9904;52.246;20.898;2023-03-01T06:48:55;103.10;;;36.83;;
19519;SDS011;9904;52.246;20.898;2023-03-01T06:51:22;102.20;;;37.10;;
19519;SDS011;9904;52.246;20.898;2023-03-01T06:53:49;103.03;;;35.33;;
19519;SDS011;9904;52.246;20.898;2023-03-01T06:56:15;97.77;;;36.40;;
19519;SDS011;9904;52.246;20.898;2023-03-01T06:58:42;95.37;;;36.17;;
19519;SDS011;9904;52.246;20.898;2023-03-01T07:01:09;94.47;;;34.50;;
19519;SDS011;9904;52.246;20.898;2023-03-01T07:03:35;90.97;;;34.43;;
19519;SDS011;9904;52.246;20.898;2023-03-01T07:06:02;94.53;;;34.37;;
19519;SDS011;9904;52.246;20.898;2023-03-01T07:08:28;95.23;;;34.20;;
19519;SDS011;9904;52.246;20.898;2023-03-01T07:10:59;95.00;;;33.70;;
19519;SDS011;9904;52.246;20.898;2023-03-01T07:13:28;86.97;;;31.67;;
19519;SDS011;9904;52.246;20.898;2023-03-01T07:15:55;90.23;;;32.73;;
19519;SDS011;9904;52.246;20.898;2023-03-01T07:18:22;85.20;;;32.13;;
19519;SDS011;9904;52.246;20.898;2023-03-01T07:20:49;85.67;;;30.87;;
19519;SDS011;9904;52.246;20.898;2023-03-01T07:23:16;91.83;;;33.17;;
19519;SDS011;9904;52.246;20.898;2023-03-01T07:25:42;84.70;;;32.57;;
19519;SDS011;9904;52.246;20.898;2023-03-01T07:28:09;92.87;;;33.23;;
19519;SDS011;9904;52.246;20.898;2023-03-01T07:30:35;86.87;;;30.43;;
19519;SDS011;9904;52.246;20.898;2023-03-01T07:33:02;96.20;;;33.10;;
19519;SDS011;9904;52.246;20.898;2023-03-01T07:35:29;96.60;;;32.77;;
19519;SDS011;9904;52.246;20.898;2023-03-01T07:37:56;82.23;;;30.67;;
19519;SDS011;9904;52.246;20.898;2023-03-01T07:40:22;84.37;;;31.23;;
19519;SDS011;9904;52.246;20.898;2023-03-01T07:42:49;85.60;;;31.87;;
19519;SDS011;9904;52.246;20.898;2023-03-01T07:45:15;80.87;;;31.73;;
19519;SDS011;9904;52.246;20.898;2023-03-01T07:47:42;77.80;;;29.77;;
19519;SDS011;9904;52.246;20.898;2023-03-01T07:50:09;78.07;;;30.57;;
19519;SDS011;9904;52.246;20.898;2023-03-01T07:52:36;75.10;;;29.43;;
19519;SDS011;9904;52.246;20.898;2023-03-01T07:55:02;76.00;;;29.50;;
19519;SDS011;9904;52.246;20.898;2023-03-01T07:57:29;78.63;;;29.27;;
19519;SDS011;9904;52.246;20.898;2023-03-01T07:59:56;62.90;;;25.97;;
19519;SDS011;9904;52.246;20.898;2023-03-01T08:02:23;60.17;;;25.97;;
19519;SDS011;9904;52.246;20.898;2023-03-01T08:04:50;55.23;;;23.40;;
19519;SDS011;9904;52.246;20.898;2023-03-01T08:07:17;61.27;;;23.73;;
19519;SDS011;9904;52.246;20.898;2023-03-01T08:09:43;53.23;;;22.30;;
19519;SDS011;9904;52.246;20.898;2023-03-01T08:12:10;46.93;;;22.87;;
19519;SDS011;9904;52.246;20.898;2023-03-01T08:14:37;59.33;;;24.67;;
19519;SDS011;9904;52.246;20.898;2023-03-01T08:17:03;54.77;;;23.87;;
19519;SDS011;9904;52.246;20.898;2023-03-01T08:19:30;55.70;;;23.70;;
19519;SDS011;9904;52.246;20.898;2023-03-01T08:21:57;53.30;;;23.17;;
19519;SDS011;9904;52.246;20.898;2023-03-01T08:24:24;50.50;;;23.13;;
19519;SDS011;9904;52.246;20.898;2023-03-01T08:26:51;48.33;;;23.17;;
19519;SDS011;9904;52.246;20.898;2023-03-01T08:29:18;55.90;;;23.93;;
19519;SDS011;9904;52.246;20.898;2023-03-01T08:31:45;51.57;;;23.63;;
19519;SDS011;9904;52.246;20.898;2023-03-01T08:34:13;46.83;;;22.23;;
19519;SDS011;9904;52.246;20.898;2023-03-01T08:36:45;49.63;;;23.17;;
19519;SDS011;9904;52.246;20.898;2023-03-01T08:39:13;52.67;;;23.03;;
19519;SDS011;9904;52.246;20.898;2023-03-01T08:41:41;50.73;;;21.13;;
19519;SDS011;9904;52.246;20.898;2023-03-01T08:44:12;50.43;;;22.93;;
19519;SDS011;9904;52.246;20.898;2023-03-01T08:46:41;51.43;;;22.60;;
19519;SDS011;9904;52.246;20.898;2023-03-01T08:49:10;50.00;;;23.27;;
19519;SDS011;9904;52.246;20.898;2023-03-01T08:51:39;48.50;;;23.90;;
19519;SDS011;9904;52.246;20.898;2023-03-01T08:54:07;47.10;;;23.33;;
19519;SDS011;9904;52.246;20.898;2023-03-01T08:56:37;47.97;;;21.90;;
19519;SDS011;9904;52.246;20.898;2023-03-01T08:59:05;50.90;;;23.00;;
19519;SDS011;9904;52.246;20.898;2023-03-01T09:01:32;52.73;;;24.53;;
19519;SDS011;9904;52.246;20.898;2023-03-01T09:03:59;52.30;;;23.77;;
19519;SDS011;9904;52.246;20.898;2023-03-01T09:06:26;57.23;;;25.50;;
19519;SDS011;9904;52.246;20.898;2023-03-01T09:08:56;52.87;;;22.73;;
19519;SDS011;9904;52.246;20.898;2023-03-01T09:11:25;54.10;;;23.10;;
19519;SDS011;9904;52.246;20.898;2023-03-01T09:13:56;54.30;;;23.07;;
19519;SDS011;9904;52.246;20.898;2023-03-01T09:16:23;48.30;;;22.23;;
19519;SDS011;9904;52.246;20.898;2023-03-01T09:18:53;50.33;;;21.73;;
19519;SDS011;9904;52.246;20.898;2023-03-01T09:21:25;50.80;;;21.53;;
19519;SDS011;9904;52.246;20.898;2023-03-01T09:24:05;48.30;;;21.40;;
19519;SDS011;9904;52.246;20.898;2023-03-01T09:26:41;48.20;;;20.33;;
19519;SDS011;9904;52.246;20.898;2023-03-01T09:29:08;47.50;;;20.43;;
19519;SDS011;9904;52.246;20.898;2023-03-01T09:31:36;51.83;;;21.10;;
19519;SDS011;9904;52.246;20.898;2023-03-01T09:34:03;61.10;;;25.70;;
19519;SDS011;9904;52.246;20.898;2023-03-01T09:36:30;47.63;;;21.00;;
19519;SDS011;9904;52.246;20.898;2023-03-01T09:38:57;51.60;;;22.63;;
19519;SDS011;9904;52.246;20.898;2023-03-01T09:44:20;50.90;;;21.20;;
19519;SDS011;9904;52.246;20.898;2023-03-01T09:46:48;53.57;;;20.70;;
19519;SDS011;9904;52.246;20.898;2023-03-01T09:49:15;45.03;;;20.40;;
19519;SDS011;9904;52.246;20.898;2023-03-01T09:51:55;44.43;;;19.87;;
19519;SDS011;9904;52.246;20.898;2023-03-01T09:54:25;45.47;;;19.03;;
19519;SDS011;9904;52.246;20.898;2023-03-01T09:57:06;42.27;;;18.70;;
19519;SDS011;9904;52.246;20.898;2023-03-01T10:02:51;40.63;;;17.70;;
19519;SDS011;9904;52.246;20.898;2023-03-01T10:11:05;39.50;;;17.27;;
19519;SDS011;9904;52.246;20.898;2023-03-01T10:13:48;52.57;;;17.90;;
19519;SDS011;9904;52.246;20.898;2023-03-01T10:19:27;40.77;;;16.37;;
19519;SDS011;9904;52.246;20.898;2023-03-01T10:22:00;45.37;;;16.97;;
19519;SDS011;9904;52.246;20.898;2023-03-01T10:24:50;41.33;;;16.13;;
19519;SDS011;9904;52.246;20.898;2023-03-01T10:27:22;37.73;;;15.90;;
19519;SDS011;9904;52.246;20.898;2023-03-01T10:30:13;36.73;;;15.20;;
19519;SDS011;9904;52.246;20.898;2023-03-01T10:32:44;33.13;;;14.90;;
19519;SDS011;9904;52.246;20.898;2023-03-01T10:35:17;31.67;;;14.83;;
19519;SDS011;9904;52.246;20.898;2023-03-01T10:40:30;35.73;;;14.50;;
19519;SDS011;9904;52.246;20.898;2023-03-01T10:42:59;27.50;;;13.50;;
19519;SDS011;9904;52.246;20.898;2023-03-01T10:45:31;29.47;;;12.97;;
19519;SDS011;9904;52.246;20.898;2023-03-01T10:50:44;31.00;;;13.90;;
19519;SDS011;9904;52.246;20.898;2023-03-01T10:53:28;27.57;;;12.80;;
19519;SDS011;9904;52.246;20.898;2023-03-01T10:56:01;30.80;;;13.00;;
19519;SDS011;9904;52.246;20.898;2023-03-01T10:58:32;31.13;;;13.07;;
19519;SDS011;9904;52.246;20.898;2023-03-01T11:01:01;26.37;;;12.40;;
19519;SDS011;9904;52.246;20.898;2023-03-01T11:06:34;28.87;;;12.87;;
19519;SDS011;9904;52.246;20.898;2023-03-01T11:09:14;29.63;;;12.57;;
19519;SDS011;9904;52.246;20.898;2023-03-01T11:11:45;29.90;;;12.80;;
19519;SDS011;9904;52.246;20.898;2023-03-01T11:14:16;36.93;;;12.83;;
19519;SDS011;9904;52.246;20.898;2023-03-01T11:17:05;31.20;;;12.17;;
19519;SDS011;9904;52.246;20.898;2023-03-01T11:19:39;22.83;;;10.87;;
19519;SDS011;9904;52.246;20.898;2023-03-01T11:22:23;28.27;;;11.30;;
19519;SDS011;9904;52.246;20.898;2023-03-01T11:24:51;25.80;;;11.47;;
19519;SDS011;9904;52.246;20.898;2023-03-01T11:27:36;23.80;;;11.40;;
19519;SDS011;9904;52.246;20.898;2023-03-01T11:30:09;24.07;;;11.27;;
19519;SDS011;9904;52.246;20.898;2023-03-01T11:33:03;28.03;;;10.70;;
19519;SDS011;9904;52.246;20.898;2023-03-01T11:35:37;23.80;;;10.70;;
19519;SDS011;9904;52.246;20.898;2023-03-01T11:51:38;23.03;;;10.70;;
19519;SDS011;9904;52.246;20.898;2023-03-01T11:57:00;27.13;;;10.70;;
19519;SDS011;9904;52.246;20.898;2023-03-01T12:05:16;23.50;;;10.47;;
19519;SDS011;9904;52.246;20.898;2023-03-01T12:10:33;22.13;;;10.23;;
19519;SDS011;9904;52.246;20.898;2023-03-01T12:19:08;23.57;;;10.10;;
19519;SDS011;9904;52.246;20.898;2023-03-01T12:21:50;25.50;;;10.50;;
19519;SDS011;9904;52.246;20.898;2023-03-01T17:38:15;51.50;;;21.07;;
19519;SDS011;9904;52.246;20.898;2023-03-01T17:40:43;49.73;;;22.13;;
19519;SDS011;9904;52.246;20.898;2023-03-01T17:43:13;51.63;;;21.60;;
19519;SDS011;9904;52.246;20.898;2023-03-01T17:45:41;49.20;;;21.63;;
19519;SDS011;9904;52.246;20.898;2023-03-01T17:48:13;57.77;;;23.67;;
19519;SDS011;9904;52.246;20.898;2023-03-01T17:50:41;51.47;;;23.17;;
19519;SDS011;9904;52.246;20.898;2023-03-01T17:53:08;51.60;;;23.20;;
19519;SDS011;9904;52.246;20.898;2023-03-01T17:55:35;64.80;;;24.40;;
19519;SDS011;9904;52.246;20.898;2023-03-01T17:58:03;59.87;;;23.83;;
19519;SDS011;9904;52.246;20.898;2023-03-01T18:00:30;55.70;;;23.37;;
19519;SDS011;9904;52.246;20.898;2023-03-01T18:02:58;61.07;;;23.13;;
19519;SDS011;9904;52.246;20.898;2023-03-01T18:05:24;54.33;;;21.60;;
19519;SDS011;9904;52.246;20.898;2023-03-01T18:07:53;49.77;;;21.83;;
19519;SDS011;9904;52.246;20.898;2023-03-01T18:10:19;56.37;;;23.17;;
19519;SDS011;9904;52.246;20.898;2023-03-01T18:12:46;55.43;;;22.57;;
19519;SDS011;9904;52.246;20.898;2023-03-01T18:15:13;60.47;;;24.73;;
19519;SDS011;9904;52.246;20.898;2023-03-01T18:17:39;51.87;;;22.50;;
19519;SDS011;9904;52.246;20.898;2023-03-01T18:20:06;58.13;;;24.40;;
19519;SDS011;9904;52.246;20.898;2023-03-01T18:22:33;58.37;;;23.90;;
19519;SDS011;9904;52.246;20.898;2023-03-01T18:25:00;66.27;;;24.27;;
19519;SDS011;9904;52.246;20.898;2023-03-01T18:27:27;63.07;;;26.10;;
19519;SDS011;9904;52.246;20.898;2023-03-01T18:29:53;80.83;;;30.03;;
19519;SDS011;9904;52.246;20.898;2023-03-01T18:32:23;63.50;;;25.83;;
19519;SDS011;9904;52.246;20.898;2023-03-01T18:34:49;60.27;;;24.13;;
19519;SDS011;9904;52.246;20.898;2023-03-01T18:37:16;56.47;;;24.57;;
19519;SDS011;9904;52.246;20.898;2023-03-01T18:39:43;56.77;;;24.37;;
19519;SDS011;9904;52.246;20.898;2023-03-01T18:42:10;60.70;;;23.23;;
19519;SDS011;9904;52.246;20.898;2023-03-01T18:44:36;62.87;;;23.97;;
19519;SDS011;9904;52.246;20.898;2023-03-01T18:47:03;57.93;;;24.80;;
19519;SDS011;9904;52.246;20.898;2023-03-01T18:49:33;63.83;;;24.60;;
19519;SDS011;9904;52.246;20.898;2023-03-01T18:52:00;56.47;;;23.77;;
19519;SDS011;9904;52.246;20.898;2023-03-01T18:54:26;57.93;;;24.50;;
19519;SDS011;9904;52.246;20.898;2023-03-01T18:56:53;65.43;;;26.40;;
19519;SDS011;9904;52.246;20.898;2023-03-01T18:59:19;68.50;;;25.77;;
19519;SDS011;9904;52.246;20.898;2023-03-01T19:01:46;64.90;;;25.93;;
19519;SDS011;9904;52.246;20.898;2023-03-01T19:04:13;63.67;;;27.00;;
19519;SDS011;9904;52.246;20.898;2023-03-01T19:06:40;61.93;;;26.17;;
19519;SDS011;9904;52.246;20.898;2023-03-01T19:09:07;68.90;;;28.10;;
19519;SDS011;9904;52.246;20.898;2023-03-01T19:11:34;60.27;;;26.20;;
19519;SDS011;9904;52.246;20.898;2023-03-01T19:14:01;73.20;;;26.90;;
19519;SDS011;9904;52.246;20.898;2023-03-01T19:16:29;76.70;;;29.03;;
19519;SDS011;9904;52.246;20.898;2023-03-01T19:19:01;72.50;;;29.40;;
19519;SDS011;9904;52.246;20.898;2023-03-01T19:21:29;71.37;;;28.23;;
19519;SDS011;9904;52.246;20.898;2023-03-01T19:23:57;64.37;;;27.57;;
19519;SDS011;9904;52.246;20.898;2023-03-01T19:26:25;69.90;;;28.00;;
19519;SDS011;9904;52.246;20.898;2023-03-01T19:28:53;78.83;;;31.10;;
19519;SDS011;9904;52.246;20.898;2023-03-01T19:31:24;98.53;;;35.17;;
19519;SDS011;9904;52.246;20.898;2023-03-01T19:33:54;95.87;;;37.60;;
19519;SDS011;9904;52.246;20.898;2023-03-01T19:36:37;84.67;;;33.10;;
19519;SDS011;9904;52.246;20.898;2023-03-01T19:39:07;85.57;;;32.20;;
19519;SDS011;9904;52.246;20.898;2023-03-01T19:41:34;77.70;;;31.53;;
19519;SDS011;9904;52.246;20.898;2023-03-01T19:44:01;78.90;;;31.93;;
19519;SDS011;9904;52.246;20.898;2023-03-01T19:46:29;72.43;;;30.87;;
19519;SDS011;9904;52.246;20.898;2023-03-01T19:48:57;76.37;;;32.87;;
19519;SDS011;9904;52.246;20.898;2023-03-01T19:51:26;90.97;;;33.93;;
19519;SDS011;9904;52.246;20.898;2023-03-01T19:53:52;82.23;;;32.83;;
19519;SDS011;9904;52.246;20.898;2023-03-01T19:56:20;84.80;;;31.47;;
19519;SDS011;9904;52.246;20.898;2023-03-01T19:58:46;79.23;;;33.40;;
19519;SDS011;9904;52.246;20.898;2023-03-01T20:01:16;84.90;;;33.73;;
19519;SDS011;9904;52.246;20.898;2023-03-01T20:03:44;79.43;;;32.23;;
19519;SDS011;9904;52.246;20.898;2023-03-01T20:06:12;90.83;;;34.23;;
19519;SDS011;9904;52.246;20.898;2023-03-01T20:08:40;83.63;;;32.40;;
19519;SDS011;9904;52.246;20.898;2023-03-01T20:11:08;84.83;;;32.93;;
19519;SDS011;9904;52.246;20.898;2023-03-01T20:13:35;86.43;;;33.23;;
19519;SDS011;9904;52.246;20.898;2023-03-01T20:16:03;84.23;;;33.57;;
19519;SDS011;9904;52.246;20.898;2023-03-01T20:18:30;84.27;;;33.30;;
19519;SDS011;9904;52.246;20.898;2023-03-01T20:20:58;87.90;;;34.23;;
19519;SDS011;9904;52.246;20.898;2023-03-01T20:23:25;86.63;;;33.43;;
19519;SDS011;9904;52.246;20.898;2023-03-01T20:25:59;86.73;;;34.37;;
19519;SDS011;9904;52.246;20.898;2023-03-01T20:28:26;98.13;;;36.53;;
19519;SDS011;9904;52.246;20.898;2023-03-01T20:30:53;90.83;;;38.07;;
19519;SDS011;9904;52.246;20.898;2023-03-01T20:33:21;110.00;;;43.33;;
19519;SDS011;9904;52.246;20.898;2023-03-01T20:35:47;121.60;;;45.00;;
19519;SDS011;9904;52.246;20.898;2023-03-01T20:38:13;117.77;;;43.30;;
19519;SDS011;9904;52.246;20.898;2023-03-01T20:40:40;124.43;;;47.23;;
19519;SDS011;9904;52.246;20.898;2023-03-01T20:43:07;115.63;;;44.07;;
19519;SDS011;9904;52.246;20.898;2023-03-01T20:45:36;112.90;;;43.97;;
19519;SDS011;9904;52.246;20.898;2023-03-01T20:48:03;113.73;;;44.13;;